PTWTP SBBR-SBCY
Flight info
| Callsign | PTWTP |
|---|---|
| Flight time | 1h 26m |
| Altitude | 36000 |
| Route | SIREM DCT LODOV DCT MABMA DCT SINIP |
| Aircraft | A20N/M-SDE2E3FGHIRWXY/LB1 |
Departure
| Time | 2026-05-08 18:04 |
|---|---|
| Airport | Presidente Juscelino Kubitschek International Airport (SBBR) |
Arrival
| Time | 2026-05-08 19:30 |
|---|---|
| Airport | Várzea Grande–Marechal Rondon International Airport (SBCY) |
| Time | Latitude | Longitude | Altitude | Speed | Heading |
|---|---|---|---|---|---|
| 2026-05-08 17:44 | -15.87126 | -47.91824 | 3456 ft | 0 kts | 196° |
| 2026-05-08 17:53 | -15.87125 | -47.91823 | 3456 ft | 1 kts | 196° |
| 2026-05-08 17:53 | -15.87116 | -47.91820 | 3456 ft | 1 kts | 196° |
| 2026-05-08 17:53 | -15.87107 | -47.91818 | 3458 ft | 1 kts | 196° |
| 2026-05-08 17:54 | -15.87097 | -47.91815 | 3457 ft | 2 kts | 192° |
| 2026-05-08 17:54 | -15.87087 | -47.91813 | 3457 ft | 2 kts | 186° |
| 2026-05-08 17:54 | -15.87077 | -47.91812 | 3457 ft | 2 kts | 160° |
| 2026-05-08 17:54 | -15.87067 | -47.91818 | 3457 ft | 2 kts | 122° |
| 2026-05-08 17:55 | -15.87064 | -47.91828 | 3457 ft | 2 kts | 86° |
| 2026-05-08 17:55 | -15.87064 | -47.91830 | 3458 ft | 0 kts | 85° |
| 2026-05-08 17:57 | -15.87063 | -47.91826 | 3457 ft | 3 kts | 85° |
| 2026-05-08 17:57 | -15.87061 | -47.91787 | 3457 ft | 8 kts | 86° |
| 2026-05-08 17:57 | -15.87057 | -47.91711 | 3457 ft | 13 kts | 88° |
| 2026-05-08 17:58 | -15.87054 | -47.91625 | 3457 ft | 11 kts | 92° |
| 2026-05-08 17:58 | -15.87131 | -47.91588 | 3456 ft | 17 kts | 175° |
| 2026-05-08 17:58 | -15.87272 | -47.91579 | 3449 ft | 23 kts | 175° |
| 2026-05-08 17:58 | -15.87448 | -47.91567 | 3443 ft | 26 kts | 176° |
| 2026-05-08 17:59 | -15.87553 | -47.91560 | 3441 ft | 13 kts | 176° |
| 2026-05-08 17:59 | -15.87660 | -47.91554 | 3443 ft | 15 kts | 176° |
| 2026-05-08 17:59 | -15.87730 | -47.91598 | 3442 ft | 13 kts | 257° |
| 2026-05-08 17:59 | -15.87741 | -47.91706 | 3445 ft | 16 kts | 265° |
| 2026-05-08 18:00 | -15.87748 | -47.91833 | 3449 ft | 19 kts | 266° |
| 2026-05-08 18:00 | -15.87767 | -47.92142 | 3455 ft | 24 kts | 266° |
| 2026-05-08 18:00 | -15.87780 | -47.92321 | 3460 ft | 26 kts | 265° |
| 2026-05-08 18:01 | -15.87793 | -47.92512 | 3465 ft | 27 kts | 266° |
| 2026-05-08 18:01 | -15.87806 | -47.92715 | 3470 ft | 29 kts | 266° |
| 2026-05-08 18:01 | -15.87820 | -47.92929 | 3475 ft | 30 kts | 266° |
| 2026-05-08 18:01 | -15.87830 | -47.93151 | 3481 ft | 31 kts | 267° |
| 2026-05-08 18:02 | -15.87845 | -47.93379 | 3486 ft | 32 kts | 266° |
| 2026-05-08 18:02 | -15.87862 | -47.93612 | 3499 ft | 32 kts | 265° |
| 2026-05-08 18:02 | -15.87875 | -47.93808 | 3507 ft | 20 kts | 266° |
| 2026-05-08 18:02 | -15.87887 | -47.93953 | 3505 ft | 19 kts | 253° |
| 2026-05-08 18:03 | -15.88001 | -47.93993 | 3514 ft | 17 kts | 177° |
| 2026-05-08 18:03 | -15.88060 | -47.93910 | 3511 ft | 9 kts | 87° |
| 2026-05-08 18:03 | -15.88060 | -47.93908 | 3511 ft | 0 kts | 87° |
| 2026-05-08 18:03 | -15.88038 | -47.93544 | 3494 ft | 100 kts | 86° |
| 2026-05-08 18:04 | -15.87978 | -47.92560 | 3517 ft | 169 kts | 86° |
| 2026-05-08 18:04 | -15.87906 | -47.91250 | 4232 ft | 197 kts | 86° |
| 2026-05-08 18:04 | -15.87810 | -47.89822 | 5516 ft | 202 kts | 84° |
| 2026-05-08 18:04 | -15.87690 | -47.88296 | 6492 ft | 223 kts | 83° |
| 2026-05-08 18:05 | -15.87558 | -47.86608 | 7311 ft | 247 kts | 84° |
| 2026-05-08 18:05 | -15.87424 | -47.84745 | 8117 ft | 271 kts | 84° |
| 2026-05-08 18:05 | -15.87358 | -47.82716 | 8670 ft | 287 kts | 95° |
| 2026-05-08 18:05 | -15.87977 | -47.80741 | 8881 ft | 292 kts | 120° |
| 2026-05-08 18:06 | -15.89359 | -47.79196 | 8955 ft | 295 kts | 145° |
| 2026-05-08 18:06 | -15.91253 | -47.78394 | 8951 ft | 296 kts | 171° |
| 2026-05-08 18:06 | -15.93305 | -47.78506 | 8954 ft | 298 kts | 195° |
| 2026-05-08 18:06 | -15.95232 | -47.79291 | 8941 ft | 297 kts | 206° |
| 2026-05-08 18:07 | -15.97078 | -47.80236 | 8947 ft | 296 kts | 207° |
| 2026-05-08 18:07 | -15.98948 | -47.81150 | 8942 ft | 297 kts | 204° |
| 2026-05-08 18:07 | -16.00760 | -47.82131 | 8985 ft | 300 kts | 219° |
| 2026-05-08 18:07 | -16.02086 | -47.83784 | 9486 ft | 300 kts | 242° |
| 2026-05-08 18:08 | -16.03033 | -47.85718 | 10600 ft | 304 kts | 245° |
| 2026-05-08 18:08 | -16.04038 | -47.87750 | 11237 ft | 329 kts | 242° |
| 2026-05-08 18:08 | -16.05249 | -47.89883 | 11801 ft | 353 kts | 239° |
| 2026-05-08 18:08 | -16.06608 | -47.92040 | 12790 ft | 360 kts | 237° |
| 2026-05-08 18:09 | -16.08036 | -47.94204 | 13800 ft | 367 kts | 236° |
| 2026-05-08 18:09 | -16.09512 | -47.96403 | 14686 ft | 372 kts | 235° |
| 2026-05-08 18:09 | -16.11008 | -47.98621 | 15600 ft | 377 kts | 235° |
| 2026-05-08 18:09 | -16.12350 | -48.00983 | 16446 ft | 382 kts | 248° |
| 2026-05-08 18:10 | -16.12973 | -48.03676 | 17267 ft | 387 kts | 266° |
| 2026-05-08 18:10 | -16.12998 | -48.06505 | 18081 ft | 392 kts | 271° |
| 2026-05-08 18:10 | -16.12965 | -48.09325 | 18776 ft | 397 kts | 270° |
| 2026-05-08 18:10 | -16.13069 | -48.12209 | 19553 ft | 399 kts | 266° |
| 2026-05-08 18:11 | -16.13307 | -48.15097 | 20276 ft | 403 kts | 264° |
| 2026-05-08 18:11 | -16.13632 | -48.18005 | 20998 ft | 406 kts | 263° |
| 2026-05-08 18:11 | -16.13999 | -48.20927 | 21724 ft | 410 kts | 262° |
| 2026-05-08 18:11 | -16.14385 | -48.23885 | 22424 ft | 414 kts | 262° |
| 2026-05-08 18:12 | -16.14775 | -48.26865 | 23127 ft | 417 kts | 262° |
| 2026-05-08 18:12 | -16.15168 | -48.29885 | 23768 ft | 421 kts | 263° |
| 2026-05-08 18:12 | -16.15553 | -48.32871 | 24394 ft | 423 kts | 263° |
| 2026-05-08 18:12 | -16.15942 | -48.35907 | 25050 ft | 424 kts | 263° |
| 2026-05-08 18:13 | -16.16332 | -48.38956 | 25674 ft | 426 kts | 263° |
| 2026-05-08 18:13 | -16.16723 | -48.42032 | 26216 ft | 430 kts | 263° |
| 2026-05-08 18:13 | -16.17117 | -48.45125 | 26779 ft | 433 kts | 263° |
| 2026-05-08 18:13 | -16.17513 | -48.48247 | 27341 ft | 436 kts | 263° |
| 2026-05-08 18:14 | -16.17912 | -48.51385 | 27893 ft | 439 kts | 263° |
| 2026-05-08 18:14 | -16.18313 | -48.54550 | 28438 ft | 442 kts | 263° |
| 2026-05-08 18:14 | -16.18715 | -48.57726 | 28974 ft | 444 kts | 263° |
| 2026-05-08 18:14 | -16.19119 | -48.60928 | 29516 ft | 447 kts | 263° |
| 2026-05-08 18:15 | -16.19520 | -48.64096 | 30059 ft | 449 kts | 263° |
| 2026-05-08 18:15 | -16.19929 | -48.67339 | 30546 ft | 452 kts | 263° |
| 2026-05-08 18:15 | -16.20339 | -48.70595 | 31076 ft | 454 kts | 263° |
| 2026-05-08 18:15 | -16.20749 | -48.73854 | 31679 ft | 453 kts | 263° |
| 2026-05-08 18:16 | -16.21157 | -48.77101 | 32379 ft | 450 kts | 263° |
| 2026-05-08 18:16 | -16.21562 | -48.80327 | 33096 ft | 447 kts | 263° |
| 2026-05-08 18:16 | -16.21958 | -48.83492 | 33781 ft | 444 kts | 263° |
| 2026-05-08 18:16 | -16.22356 | -48.86669 | 34417 ft | 441 kts | 263° |
| 2026-05-08 18:17 | -16.22750 | -48.89819 | 35085 ft | 435 kts | 263° |
| 2026-05-08 18:17 | -16.23136 | -48.92918 | 35735 ft | 429 kts | 263° |
| 2026-05-08 18:17 | -16.23517 | -48.95976 | 36010 ft | 423 kts | 263° |
| 2026-05-08 18:17 | -16.23895 | -48.99007 | 36118 ft | 422 kts | 263° |
| 2026-05-08 18:18 | -16.24648 | -49.05064 | 36129 ft | 422 kts | 263° |
| 2026-05-08 18:18 | -16.25397 | -49.11129 | 36101 ft | 424 kts | 262° |
| 2026-05-08 18:19 | -16.26147 | -49.17188 | 36066 ft | 424 kts | 262° |
| 2026-05-08 18:19 | -16.26901 | -49.23284 | 36026 ft | 424 kts | 262° |
| 2026-05-08 18:20 | -16.27653 | -49.29393 | 35982 ft | 423 kts | 262° |
| 2026-05-08 18:20 | -16.28395 | -49.35435 | 35944 ft | 423 kts | 262° |
| 2026-05-08 18:21 | -16.29138 | -49.41504 | 35941 ft | 422 kts | 262° |
| 2026-05-08 18:21 | -16.29881 | -49.47586 | 35934 ft | 422 kts | 262° |
| 2026-05-08 18:22 | -16.30618 | -49.53634 | 35938 ft | 422 kts | 262° |
| 2026-05-08 18:22 | -16.31357 | -49.59707 | 35934 ft | 422 kts | 262° |
| 2026-05-08 18:23 | -16.32093 | -49.65777 | 35937 ft | 423 kts | 262° |
| 2026-05-08 18:23 | -16.32824 | -49.71820 | 35939 ft | 423 kts | 262° |
| 2026-05-08 18:24 | -16.33560 | -49.77917 | 35942 ft | 424 kts | 262° |
| 2026-05-08 18:24 | -16.34295 | -49.84014 | 35946 ft | 424 kts | 262° |
| 2026-05-08 18:25 | -16.35027 | -49.90106 | 35944 ft | 424 kts | 262° |
| 2026-05-08 18:25 | -16.35753 | -49.96168 | 35944 ft | 424 kts | 262° |
| 2026-05-08 18:26 | -16.36481 | -50.02262 | 35945 ft | 424 kts | 262° |
| 2026-05-08 18:26 | -16.37209 | -50.08365 | 35942 ft | 424 kts | 262° |
| 2026-05-08 18:27 | -16.37813 | -50.13439 | 35941 ft | 424 kts | 262° |
| 2026-05-08 18:27 | -16.38659 | -50.20570 | 35937 ft | 424 kts | 262° |
| 2026-05-08 18:28 | -16.39381 | -50.26669 | 35938 ft | 424 kts | 262° |
| 2026-05-08 18:28 | -16.40100 | -50.32759 | 35933 ft | 424 kts | 262° |
| 2026-05-08 18:29 | -16.40817 | -50.38849 | 35928 ft | 424 kts | 262° |
| 2026-05-08 18:29 | -16.41528 | -50.44904 | 35926 ft | 424 kts | 262° |
| 2026-05-08 18:30 | -16.42242 | -50.50997 | 35922 ft | 424 kts | 262° |
| 2026-05-08 18:30 | -16.42954 | -50.57088 | 35921 ft | 424 kts | 262° |
| 2026-05-08 18:31 | -16.43665 | -50.63187 | 35921 ft | 424 kts | 262° |
| 2026-05-08 18:31 | -16.44374 | -50.69288 | 35923 ft | 424 kts | 262° |
| 2026-05-08 18:32 | -16.45079 | -50.75362 | 35924 ft | 424 kts | 262° |
| 2026-05-08 18:32 | -16.45785 | -50.81466 | 35922 ft | 424 kts | 262° |
| 2026-05-08 18:33 | -16.46490 | -50.87578 | 35926 ft | 424 kts | 262° |
| 2026-05-08 18:33 | -16.47189 | -50.93650 | 35929 ft | 425 kts | 262° |
| 2026-05-08 18:34 | -16.47890 | -50.99764 | 35929 ft | 425 kts | 262° |
| 2026-05-08 18:34 | -16.48589 | -51.05869 | 35928 ft | 425 kts | 262° |
| 2026-05-08 18:35 | -16.49286 | -51.11976 | 35928 ft | 424 kts | 262° |
| 2026-05-08 18:35 | -16.49983 | -51.18091 | 35928 ft | 424 kts | 262° |
| 2026-05-08 18:36 | -16.50673 | -51.24161 | 35925 ft | 424 kts | 262° |
| 2026-05-08 18:36 | -16.51364 | -51.30266 | 35924 ft | 424 kts | 262° |
| 2026-05-08 18:37 | -16.52050 | -51.36381 | 35928 ft | 428 kts | 261° |
| 2026-05-08 18:37 | -16.52748 | -51.42574 | 35924 ft | 428 kts | 261° |
| 2026-05-08 18:38 | -16.53437 | -51.48700 | 35922 ft | 428 kts | 261° |
| 2026-05-08 18:38 | -16.54130 | -51.54873 | 35918 ft | 428 kts | 261° |
| 2026-05-08 18:39 | -16.54819 | -51.61040 | 35918 ft | 428 kts | 261° |
| 2026-05-08 18:39 | -16.55507 | -51.67211 | 35916 ft | 428 kts | 261° |
| 2026-05-08 18:40 | -16.56077 | -51.72328 | 35915 ft | 428 kts | 261° |
| 2026-05-08 18:40 | -16.56760 | -51.78483 | 35919 ft | 427 kts | 261° |
| 2026-05-08 18:41 | -16.57441 | -51.84643 | 35918 ft | 427 kts | 261° |
| 2026-05-08 18:41 | -16.58120 | -51.90796 | 35915 ft | 427 kts | 261° |
| 2026-05-08 18:42 | -16.58799 | -51.96956 | 35931 ft | 427 kts | 261° |
| 2026-05-08 18:42 | -16.59475 | -52.03112 | 35918 ft | 428 kts | 261° |
| 2026-05-08 18:43 | -16.60147 | -52.09242 | 35657 ft | 429 kts | 261° |
| 2026-05-08 18:43 | -16.60485 | -52.12337 | 35422 ft | 430 kts | 261° |
| 2026-05-08 18:43 | -16.60824 | -52.15443 | 35182 ft | 431 kts | 261° |
| 2026-05-08 18:44 | -16.61162 | -52.18553 | 34859 ft | 433 kts | 261° |
| 2026-05-08 18:44 | -16.61503 | -52.21686 | 34385 ft | 435 kts | 261° |
| 2026-05-08 18:44 | -16.61845 | -52.24833 | 33897 ft | 438 kts | 261° |
| 2026-05-08 18:44 | -16.62189 | -52.28000 | 33297 ft | 441 kts | 261° |
| 2026-05-08 18:45 | -16.62534 | -52.31186 | 32673 ft | 442 kts | 262° |
| 2026-05-08 18:45 | -16.62880 | -52.34382 | 32057 ft | 444 kts | 262° |
| 2026-05-08 18:45 | -16.63224 | -52.37567 | 31450 ft | 438 kts | 262° |
| 2026-05-08 18:45 | -16.63556 | -52.40660 | 30865 ft | 432 kts | 262° |
| 2026-05-08 18:46 | -16.63893 | -52.43789 | 30282 ft | 425 kts | 262° |
| 2026-05-08 18:46 | -16.64221 | -52.46834 | 29663 ft | 420 kts | 262° |
| 2026-05-08 18:46 | -16.64544 | -52.49843 | 28994 ft | 415 kts | 262° |
| 2026-05-08 18:46 | -16.64859 | -52.52776 | 28364 ft | 410 kts | 262° |
| 2026-05-08 18:47 | -16.65174 | -52.55721 | 27733 ft | 406 kts | 262° |
| 2026-05-08 18:47 | -16.65486 | -52.58629 | 27118 ft | 402 kts | 262° |
| 2026-05-08 18:47 | -16.65794 | -52.61515 | 26517 ft | 398 kts | 262° |
| 2026-05-08 18:47 | -16.66099 | -52.64377 | 25923 ft | 395 kts | 262° |
| 2026-05-08 18:48 | -16.66401 | -52.67212 | 25349 ft | 392 kts | 262° |
| 2026-05-08 18:48 | -16.66702 | -52.70031 | 24774 ft | 389 kts | 262° |
| 2026-05-08 18:48 | -16.67001 | -52.72834 | 24212 ft | 387 kts | 262° |
| 2026-05-08 18:48 | -16.67296 | -52.75617 | 23675 ft | 385 kts | 262° |
| 2026-05-08 18:49 | -16.67591 | -52.78388 | 23063 ft | 383 kts | 263° |
| 2026-05-08 18:49 | -16.67885 | -52.81145 | 22429 ft | 381 kts | 263° |
| 2026-05-08 18:49 | -16.68173 | -52.83863 | 21813 ft | 379 kts | 263° |
| 2026-05-08 18:49 | -16.68462 | -52.86591 | 21205 ft | 377 kts | 263° |
| 2026-05-08 18:50 | -16.68750 | -52.89304 | 20608 ft | 375 kts | 264° |
| 2026-05-08 18:50 | -16.69036 | -52.92007 | 20020 ft | 373 kts | 264° |
| 2026-05-08 18:50 | -16.69320 | -52.94700 | 19443 ft | 371 kts | 264° |
| 2026-05-08 18:50 | -16.69598 | -52.97339 | 18884 ft | 368 kts | 264° |
| 2026-05-08 18:51 | -16.69877 | -52.99991 | 18333 ft | 367 kts | 264° |
| 2026-05-08 18:51 | -16.70154 | -53.02630 | 17722 ft | 365 kts | 265° |
| 2026-05-08 18:51 | -16.70426 | -53.05238 | 17099 ft | 363 kts | 265° |
| 2026-05-08 18:51 | -16.70701 | -53.07862 | 16484 ft | 360 kts | 265° |
| 2026-05-08 18:52 | -16.70856 | -53.10459 | 15882 ft | 357 kts | 271° |
| 2026-05-08 18:52 | -16.70705 | -53.13037 | 15283 ft | 354 kts | 276° |
| 2026-05-08 18:52 | -16.70491 | -53.15591 | 14717 ft | 352 kts | 276° |
| 2026-05-08 18:52 | -16.70292 | -53.18130 | 14148 ft | 350 kts | 276° |
| 2026-05-08 18:53 | -16.70098 | -53.20650 | 13725 ft | 343 kts | 276° |
| 2026-05-08 18:53 | -16.69914 | -53.23039 | 13560 ft | 327 kts | 276° |
| 2026-05-08 18:53 | -16.69732 | -53.25391 | 13322 ft | 316 kts | 276° |
| 2026-05-08 18:53 | -16.69554 | -53.27660 | 12978 ft | 310 kts | 276° |
| 2026-05-08 18:54 | -16.69380 | -53.29870 | 12734 ft | 305 kts | 276° |
| 2026-05-08 18:54 | -16.69204 | -53.32086 | 12492 ft | 307 kts | 276° |
| 2026-05-08 18:54 | -16.69030 | -53.34302 | 12248 ft | 304 kts | 277° |
| 2026-05-08 18:54 | -16.68857 | -53.36495 | 12005 ft | 304 kts | 277° |
| 2026-05-08 18:55 | -16.68514 | -53.40838 | 11529 ft | 300 kts | 277° |
| 2026-05-08 18:55 | -16.68342 | -53.43012 | 11278 ft | 301 kts | 277° |
| 2026-05-08 18:55 | -16.68171 | -53.45178 | 11051 ft | 299 kts | 277° |
| 2026-05-08 18:56 | -16.67997 | -53.47337 | 10816 ft | 299 kts | 278° |
| 2026-05-08 18:56 | -16.67823 | -53.49499 | 10582 ft | 298 kts | 278° |
| 2026-05-08 18:56 | -16.67652 | -53.51643 | 10354 ft | 297 kts | 278° |
| 2026-05-08 18:56 | -16.67483 | -53.53788 | 10122 ft | 296 kts | 278° |
| 2026-05-08 18:57 | -16.67312 | -53.55933 | 9896 ft | 296 kts | 278° |
| 2026-05-08 18:57 | -16.67200 | -53.57344 | 9790 ft | 294 kts | 278° |
| 2026-05-08 18:57 | -16.66971 | -53.60189 | 9620 ft | 294 kts | 278° |
| 2026-05-08 18:57 | -16.66796 | -53.62344 | 9491 ft | 313 kts | 278° |
| 2026-05-08 18:58 | -16.66591 | -53.64777 | 9380 ft | 356 kts | 277° |
| 2026-05-08 18:58 | -16.66379 | -53.67379 | 9251 ft | 362 kts | 277° |
| 2026-05-08 18:58 | -16.66170 | -53.70004 | 9125 ft | 373 kts | 277° |
| 2026-05-08 18:58 | -16.65956 | -53.72709 | 8995 ft | 372 kts | 277° |
| 2026-05-08 18:59 | -16.65739 | -53.75402 | 8851 ft | 371 kts | 276° |
| 2026-05-08 18:59 | -16.65518 | -53.78046 | 8741 ft | 360 kts | 275° |
| 2026-05-08 18:59 | -16.65310 | -53.80629 | 8518 ft | 355 kts | 276° |
| 2026-05-08 18:59 | -16.65101 | -53.83212 | 8399 ft | 361 kts | 276° |
| 2026-05-08 19:00 | -16.64889 | -53.85828 | 8275 ft | 361 kts | 276° |
| 2026-05-08 19:00 | -16.64680 | -53.88390 | 8141 ft | 359 kts | 276° |
| 2026-05-08 19:00 | -16.64469 | -53.90996 | 8037 ft | 360 kts | 276° |
| 2026-05-08 19:00 | -16.64259 | -53.93597 | 7905 ft | 361 kts | 276° |
| 2026-05-08 19:01 | -16.64039 | -53.96248 | 7794 ft | 369 kts | 277° |
| 2026-05-08 19:01 | -16.63821 | -53.98921 | 7674 ft | 368 kts | 276° |
| 2026-05-08 19:01 | -16.63605 | -54.01583 | 7550 ft | 368 kts | 276° |
| 2026-05-08 19:01 | -16.63388 | -54.04243 | 7424 ft | 367 kts | 277° |
| 2026-05-08 19:02 | -16.63170 | -54.06899 | 7303 ft | 368 kts | 277° |
| 2026-05-08 19:02 | -16.62956 | -54.09528 | 7190 ft | 369 kts | 277° |
| 2026-05-08 19:02 | -16.62739 | -54.12187 | 7067 ft | 368 kts | 277° |
| 2026-05-08 19:02 | -16.62515 | -54.14860 | 6955 ft | 375 kts | 277° |
| 2026-05-08 19:03 | -16.62288 | -54.17589 | 6836 ft | 379 kts | 277° |
| 2026-05-08 19:03 | -16.62066 | -54.20324 | 6711 ft | 379 kts | 277° |
| 2026-05-08 19:03 | -16.61838 | -54.23052 | 6608 ft | 377 kts | 277° |
| 2026-05-08 19:03 | -16.61610 | -54.25784 | 6480 ft | 377 kts | 277° |
| 2026-05-08 19:04 | -16.61385 | -54.28519 | 6365 ft | 381 kts | 277° |
| 2026-05-08 19:04 | -16.61156 | -54.31253 | 6251 ft | 376 kts | 277° |
| 2026-05-08 19:04 | -16.60925 | -54.33993 | 6121 ft | 379 kts | 277° |
| 2026-05-08 19:04 | -16.60696 | -54.36712 | 6001 ft | 375 kts | 278° |
| 2026-05-08 19:05 | -16.60467 | -54.39430 | 5872 ft | 378 kts | 277° |
| 2026-05-08 19:05 | -16.60238 | -54.42146 | 5749 ft | 374 kts | 278° |
| 2026-05-08 19:05 | -16.60010 | -54.44854 | 5641 ft | 376 kts | 277° |
| 2026-05-08 19:05 | -16.59783 | -54.47538 | 5518 ft | 375 kts | 277° |
| 2026-05-08 19:06 | -16.59553 | -54.50270 | 5397 ft | 375 kts | 277° |
| 2026-05-08 19:06 | -16.59328 | -54.52940 | 5281 ft | 373 kts | 277° |
| 2026-05-08 19:06 | -16.59098 | -54.55625 | 5156 ft | 371 kts | 277° |
| 2026-05-08 19:06 | -16.58873 | -54.58294 | 5035 ft | 371 kts | 277° |
| 2026-05-08 19:07 | -16.58644 | -54.60981 | 4979 ft | 372 kts | 277° |
| 2026-05-08 19:07 | -16.58213 | -54.63618 | 4973 ft | 368 kts | 287° |
| 2026-05-08 19:07 | -16.57326 | -54.66105 | 4963 ft | 366 kts | 297° |
| 2026-05-08 19:07 | -16.56118 | -54.68448 | 4979 ft | 365 kts | 300° |
| 2026-05-08 19:08 | -16.54906 | -54.70787 | 4977 ft | 365 kts | 300° |
| 2026-05-08 19:08 | -16.53713 | -54.73114 | 4982 ft | 366 kts | 300° |
| 2026-05-08 19:08 | -16.52509 | -54.75460 | 4977 ft | 365 kts | 300° |
| 2026-05-08 19:08 | -16.51316 | -54.77795 | 4966 ft | 365 kts | 300° |
| 2026-05-08 19:09 | -16.50122 | -54.80120 | 4969 ft | 370 kts | 300° |
| 2026-05-08 19:09 | -16.48924 | -54.82460 | 4980 ft | 364 kts | 300° |
| 2026-05-08 19:09 | -16.47727 | -54.84795 | 4981 ft | 366 kts | 300° |
| 2026-05-08 19:09 | -16.46529 | -54.87129 | 4967 ft | 363 kts | 300° |
| 2026-05-08 19:10 | -16.45327 | -54.89475 | 4981 ft | 368 kts | 300° |
| 2026-05-08 19:10 | -16.44125 | -54.91821 | 4971 ft | 366 kts | 300° |
| 2026-05-08 19:10 | -16.42919 | -54.94169 | 4968 ft | 369 kts | 300° |
| 2026-05-08 19:10 | -16.41713 | -54.96518 | 4982 ft | 367 kts | 300° |
| 2026-05-08 19:11 | -16.40513 | -54.98852 | 4966 ft | 365 kts | 300° |
| 2026-05-08 19:11 | -16.39313 | -55.01188 | 4969 ft | 367 kts | 300° |
| 2026-05-08 19:11 | -16.38106 | -55.03542 | 4967 ft | 367 kts | 300° |
| 2026-05-08 19:11 | -16.36918 | -55.05854 | 4978 ft | 363 kts | 300° |
| 2026-05-08 19:12 | -16.35728 | -55.08170 | 4964 ft | 366 kts | 300° |
| 2026-05-08 19:12 | -16.34518 | -55.10513 | 4979 ft | 364 kts | 300° |
| 2026-05-08 19:12 | -16.33318 | -55.12840 | 4984 ft | 367 kts | 300° |
| 2026-05-08 19:12 | -16.32121 | -55.15167 | 4980 ft | 368 kts | 300° |
| 2026-05-08 19:13 | -16.30916 | -55.17508 | 4988 ft | 365 kts | 300° |
| 2026-05-08 19:13 | -16.29723 | -55.19826 | 4975 ft | 363 kts | 300° |
| 2026-05-08 19:13 | -16.28526 | -55.22148 | 4987 ft | 364 kts | 300° |
| 2026-05-08 19:13 | -16.27332 | -55.24460 | 4974 ft | 362 kts | 300° |
| 2026-05-08 19:14 | -16.26157 | -55.26742 | 4971 ft | 362 kts | 300° |
| 2026-05-08 19:14 | -16.24968 | -55.29045 | 4984 ft | 362 kts | 300° |
| 2026-05-08 19:14 | -16.23769 | -55.31370 | 4975 ft | 364 kts | 300° |
| 2026-05-08 19:14 | -16.22573 | -55.33685 | 4989 ft | 361 kts | 300° |
| 2026-05-08 19:15 | -16.21381 | -55.35987 | 4985 ft | 364 kts | 300° |
| 2026-05-08 19:15 | -16.20182 | -55.38311 | 4974 ft | 364 kts | 300° |
| 2026-05-08 19:15 | -16.18980 | -55.40637 | 4980 ft | 365 kts | 300° |
| 2026-05-08 19:15 | -16.17791 | -55.42936 | 4982 ft | 360 kts | 300° |
| 2026-05-08 19:16 | -16.16597 | -55.45243 | 4965 ft | 363 kts | 300° |
| 2026-05-08 19:16 | -16.15391 | -55.47571 | 4969 ft | 364 kts | 300° |
| 2026-05-08 19:16 | -16.14189 | -55.49890 | 4986 ft | 363 kts | 300° |
| 2026-05-08 19:16 | -16.12989 | -55.52208 | 4970 ft | 365 kts | 300° |
| 2026-05-08 19:17 | -16.11782 | -55.54534 | 4976 ft | 363 kts | 300° |
| 2026-05-08 19:17 | -16.10592 | -55.56836 | 4972 ft | 365 kts | 300° |
| 2026-05-08 19:17 | -16.09393 | -55.59154 | 4967 ft | 363 kts | 300° |
| 2026-05-08 19:17 | -16.08188 | -55.61480 | 4968 ft | 368 kts | 300° |
| 2026-05-08 19:18 | -16.06980 | -55.63810 | 4972 ft | 366 kts | 300° |
| 2026-05-08 19:18 | -16.05778 | -55.66129 | 4975 ft | 365 kts | 300° |
| 2026-05-08 19:18 | -16.04573 | -55.68446 | 4974 ft | 364 kts | 300° |
| 2026-05-08 19:18 | -16.03373 | -55.70759 | 4967 ft | 364 kts | 300° |
| 2026-05-08 19:19 | -16.02173 | -55.73072 | 4975 ft | 364 kts | 300° |
| 2026-05-08 19:19 | -16.00965 | -55.75402 | 4965 ft | 367 kts | 300° |
| 2026-05-08 19:19 | -15.99765 | -55.77714 | 4951 ft | 353 kts | 300° |
| 2026-05-08 19:19 | -15.98647 | -55.79880 | 4957 ft | 326 kts | 300° |
| 2026-05-08 19:20 | -15.97615 | -55.81872 | 4960 ft | 301 kts | 300° |
| 2026-05-08 19:20 | -15.97296 | -55.82487 | 4947 ft | 294 kts | 300° |
| 2026-05-08 19:20 | -15.95750 | -55.85454 | 4755 ft | 268 kts | 301° |
| 2026-05-08 19:20 | -15.94889 | -55.87105 | 4584 ft | 250 kts | 301° |
| 2026-05-08 19:21 | -15.94089 | -55.88643 | 4437 ft | 234 kts | 301° |
| 2026-05-08 19:21 | -15.93344 | -55.90081 | 4335 ft | 218 kts | 301° |
| 2026-05-08 19:21 | -15.92641 | -55.91428 | 4238 ft | 206 kts | 301° |
| 2026-05-08 19:21 | -15.91981 | -55.92693 | 4156 ft | 193 kts | 301° |
| 2026-05-08 19:22 | -15.91349 | -55.93905 | 4052 ft | 188 kts | 302° |
| 2026-05-08 19:22 | -15.90633 | -55.95259 | 4006 ft | 235 kts | 301° |
| 2026-05-08 19:22 | -15.89864 | -55.96729 | 3977 ft | 225 kts | 301° |
| 2026-05-08 19:22 | -15.89164 | -55.98078 | 3974 ft | 205 kts | 303° |
| 2026-05-08 19:23 | -15.88326 | -55.99161 | 3908 ft | 180 kts | 321° |
| 2026-05-08 19:23 | -15.87386 | -55.99850 | 3796 ft | 151 kts | 331° |
| 2026-05-08 19:23 | -15.86522 | -56.00331 | 3619 ft | 133 kts | 334° |
| 2026-05-08 19:23 | -15.85710 | -56.00760 | 3375 ft | 129 kts | 334° |
| 2026-05-08 19:24 | -15.84913 | -56.01187 | 3126 ft | 128 kts | 334° |
| 2026-05-08 19:24 | -15.84129 | -56.01607 | 2924 ft | 124 kts | 334° |
| 2026-05-08 19:24 | -15.83387 | -56.02002 | 2740 ft | 119 kts | 334° |
| 2026-05-08 19:24 | -15.82673 | -56.02384 | 2589 ft | 115 kts | 334° |
| 2026-05-08 19:25 | -15.81929 | -56.02782 | 2592 ft | 124 kts | 334° |
| 2026-05-08 19:25 | -15.81168 | -56.03189 | 2574 ft | 120 kts | 334° |
| 2026-05-08 19:25 | -15.80670 | -56.03454 | 2563 ft | 124 kts | 335° |
| 2026-05-08 19:25 | -15.79676 | -56.03988 | 2402 ft | 118 kts | 335° |
| 2026-05-08 19:26 | -15.79192 | -56.04246 | 2300 ft | 119 kts | 335° |
| 2026-05-08 19:26 | -15.78450 | -56.04642 | 2216 ft | 119 kts | 335° |
| 2026-05-08 19:26 | -15.77707 | -56.05039 | 2221 ft | 120 kts | 335° |
| 2026-05-08 19:26 | -15.76961 | -56.05438 | 2225 ft | 121 kts | 335° |
| 2026-05-08 19:27 | -15.76202 | -56.05845 | 2223 ft | 122 kts | 334° |
| 2026-05-08 19:27 | -15.75438 | -56.06254 | 2224 ft | 123 kts | 334° |
| 2026-05-08 19:27 | -15.74675 | -56.06661 | 2228 ft | 124 kts | 333° |
| 2026-05-08 19:27 | -15.73924 | -56.07061 | 2180 ft | 124 kts | 334° |
| 2026-05-08 19:28 | -15.73166 | -56.07467 | 2034 ft | 120 kts | 334° |
| 2026-05-08 19:28 | -15.72421 | -56.07866 | 1893 ft | 121 kts | 334° |
| 2026-05-08 19:28 | -15.71673 | -56.08266 | 1747 ft | 119 kts | 335° |
| 2026-05-08 19:28 | -15.70934 | -56.08661 | 1595 ft | 122 kts | 334° |
| 2026-05-08 19:29 | -15.70204 | -56.09048 | 1451 ft | 113 kts | 337° |
| 2026-05-08 19:29 | -15.69498 | -56.09428 | 1318 ft | 114 kts | 334° |
| 2026-05-08 19:29 | -15.68791 | -56.09805 | 1180 ft | 117 kts | 335° |
| 2026-05-08 19:29 | -15.68056 | -56.10197 | 1028 ft | 118 kts | 335° |
| 2026-05-08 19:30 | -15.67347 | -56.10576 | 885 ft | 113 kts | 334° |
| 2026-05-08 19:30 | -15.66653 | -56.10949 | 733 ft | 113 kts | 333° |
| 2026-05-08 19:30 | -15.65973 | -56.11311 | 605 ft | 103 kts | 333° |
| 2026-05-08 19:30 | -15.65558 | -56.11531 | 621 ft | 24 kts | 333° |
| 2026-05-08 19:31 | -15.65464 | -56.11591 | 617 ft | 19 kts | 302° |
| 2026-05-08 19:31 | -15.65464 | -56.11676 | 623 ft | 8 kts | 255° |
| 2026-05-08 19:31 | -15.65437 | -56.11719 | 613 ft | 10 kts | 328° |
| 2026-05-08 19:31 | -15.65365 | -56.11764 | 620 ft | 14 kts | 332° |
| 2026-05-08 19:32 | -15.65312 | -56.11791 | 623 ft | 0 kts | 334° |
| 2026-05-08 19:32 | -15.65309 | -56.11792 | 622 ft | 2 kts | 334° |
| 2026-05-08 19:32 | -15.65265 | -56.11816 | 622 ft | 13 kts | 333° |
| 2026-05-08 19:32 | -15.65159 | -56.11873 | 619 ft | 20 kts | 333° |
| 2026-05-08 19:33 | -15.65083 | -56.11913 | 619 ft | 0 kts | 333° |